sensor_id;sensor_type;location;lat;lon;timestamp;pressure;altitude;pressure_sealevel;temperature;humidity
62600;BME280;48671;48.922;2.346;2022-08-21T00:00:50;101529.91;;;22.31;45.09
62600;BME280;48671;48.922;2.346;2022-08-21T00:03:16;101546.81;;;22.41;45.67
62600;BME280;48671;48.922;2.346;2022-08-21T00:05:45;101545.69;;;22.33;45.93
62600;BME280;48671;48.922;2.346;2022-08-21T00:08:11;101529.88;;;22.20;46.03
62600;BME280;48671;48.922;2.346;2022-08-21T00:10:37;101547.34;;;22.23;46.09
62600;BME280;48671;48.922;2.346;2022-08-21T00:13:06;101544.22;;;22.17;46.30
62600;BME280;48671;48.922;2.346;2022-08-21T00:15:34;101546.75;;;22.19;45.95
62600;BME280;48671;48.922;2.346;2022-08-21T00:18:01;101526.94;;;22.12;46.49
62600;BME280;48671;48.922;2.346;2022-08-21T00:20:27;101518.75;;;22.15;46.32
62600;BME280;48671;48.922;2.346;2022-08-21T00:22:53;101537.50;;;22.36;46.13
62600;BME280;48671;48.922;2.346;2022-08-21T00:25:20;101534.88;;;22.36;46.52
62600;BME280;48671;48.922;2.346;2022-08-21T00:27:46;101540.78;;;22.39;46.26
62600;BME280;48671;48.922;2.346;2022-08-21T00:30:16;101547.06;;;22.38;45.81
62600;BME280;48671;48.922;2.346;2022-08-21T00:32:42;101523.88;;;22.29;46.10
62600;BME280;48671;48.922;2.346;2022-08-21T00:35:12;101536.81;;;22.34;46.71
62600;BME280;48671;48.922;2.346;2022-08-21T00:37:39;101512.84;;;22.11;46.52
62600;BME280;48671;48.922;2.346;2022-08-21T00:40:06;101525.84;;;22.14;46.57
62600;BME280;48671;48.922;2.346;2022-08-21T00:42:31;101535.38;;;22.17;46.50
62600;BME280;48671;48.922;2.346;2022-08-21T00:44:57;101537.38;;;22.26;46.35
62600;BME280;48671;48.922;2.346;2022-08-21T00:47:23;101531.34;;;22.24;46.58
62600;BME280;48671;48.922;2.346;2022-08-21T00:49:48;101533.03;;;22.25;46.55
62600;BME280;48671;48.922;2.346;2022-08-21T00:52:18;101538.84;;;22.30;46.44
62600;BME280;48671;48.922;2.346;2022-08-21T00:54:45;101522.19;;;22.28;46.45
62600;BME280;48671;48.922;2.346;2022-08-21T00:57:15;101521.22;;;22.29;46.79
62600;BME280;48671;48.922;2.346;2022-08-21T00:59:44;101525.75;;;22.16;47.02
62600;BME280;48671;48.922;2.346;2022-08-21T01:02:11;101488.38;;;21.84;47.37
62600;BME280;48671;48.922;2.346;2022-08-21T01:04:37;101519.25;;;21.96;47.57
62600;BME280;48671;48.922;2.346;2022-08-21T01:07:03;101488.50;;;21.82;47.74
62600;BME280;48671;48.922;2.346;2022-08-21T01:09:28;101516.34;;;21.88;47.13
62600;BME280;48671;48.922;2.346;2022-08-21T01:11:54;101515.97;;;21.81;47.28
62600;BME280;48671;48.922;2.346;2022-08-21T01:14:20;101518.69;;;21.80;48.11
62600;BME280;48671;48.922;2.346;2022-08-21T01:16:49;101522.75;;;21.72;47.57
62600;BME280;48671;48.922;2.346;2022-08-21T01:19:16;101531.31;;;21.76;47.92
62600;BME280;48671;48.922;2.346;2022-08-21T01:21:42;101523.81;;;21.70;47.97
62600;BME280;48671;48.922;2.346;2022-08-21T01:24:08;101526.16;;;21.74;48.12
62600;BME280;48671;48.922;2.346;2022-08-21T01:26:35;101535.78;;;21.76;47.73
62600;BME280;48671;48.922;2.346;2022-08-21T01:29:09;101520.69;;;21.65;47.79
62600;BME280;48671;48.922;2.346;2022-08-21T01:31:36;101530.31;;;21.66;48.39
62600;BME280;48671;48.922;2.346;2022-08-21T01:34:03;101529.25;;;21.68;47.87
62600;BME280;48671;48.922;2.346;2022-08-21T01:36:28;101538.97;;;21.68;48.24
62600;BME280;48671;48.922;2.346;2022-08-21T01:38:54;101534.63;;;21.67;48.39
62600;BME280;48671;48.922;2.346;2022-08-21T01:41:20;101527.97;;;21.61;48.32
62600;BME280;48671;48.922;2.346;2022-08-21T01:43:45;101532.13;;;21.65;47.97
62600;BME280;48671;48.922;2.346;2022-08-21T01:46:11;101506.72;;;21.50;48.72
62600;BME280;48671;48.922;2.346;2022-08-21T01:48:37;101539.63;;;21.71;48.30
62600;BME280;48671;48.922;2.346;2022-08-21T01:51:04;101535.78;;;21.76;48.21
62600;BME280;48671;48.922;2.346;2022-08-21T01:53:29;101528.06;;;21.72;48.48
62600;BME280;48671;48.922;2.346;2022-08-21T01:55:55;101538.94;;;21.81;48.65
62600;BME280;48671;48.922;2.346;2022-08-21T01:58:21;101532.91;;;21.79;48.08
62600;BME280;48671;48.922;2.346;2022-08-21T02:00:46;101512.97;;;21.62;48.04
62600;BME280;48671;48.922;2.346;2022-08-21T02:03:11;101518.97;;;21.64;48.74
62600;BME280;48671;48.922;2.346;2022-08-21T02:05:37;101525.41;;;21.72;48.92
62600;BME280;48671;48.922;2.346;2022-08-21T02:08:03;101522.00;;;21.70;48.49
62600;BME280;48671;48.922;2.346;2022-08-21T02:10:31;101508.81;;;21.58;48.16
62600;BME280;48671;48.922;2.346;2022-08-21T02:12:57;101505.75;;;21.51;49.08
62600;BME280;48671;48.922;2.346;2022-08-21T02:15:23;101515.22;;;21.55;48.44
62600;BME280;48671;48.922;2.346;2022-08-21T02:17:51;101521.44;;;21.54;48.82
62600;BME280;48671;48.922;2.346;2022-08-21T02:20:27;101518.16;;;21.50;48.70
62600;BME280;48671;48.922;2.346;2022-08-21T02:22:53;101517.09;;;21.53;49.17
62600;BME280;48671;48.922;2.346;2022-08-21T02:25:20;101510.84;;;21.54;48.94
62600;BME280;48671;48.922;2.346;2022-08-21T02:27:46;101512.88;;;21.50;49.19
62600;BME280;48671;48.922;2.346;2022-08-21T02:30:26;101490.13;;;21.35;48.82
62600;BME280;48671;48.922;2.346;2022-08-21T02:32:52;101503.28;;;21.37;49.29
62600;BME280;48671;48.922;2.346;2022-08-21T02:35:18;101496.09;;;21.26;49.40
62600;BME280;48671;48.922;2.346;2022-08-21T02:37:57;101513.53;;;21.28;49.38
62600;BME280;48671;48.922;2.346;2022-08-21T02:40:30;101516.63;;;21.22;49.75
62600;BME280;48671;48.922;2.346;2022-08-21T02:42:59;101505.63;;;21.16;49.55
62600;BME280;48671;48.922;2.346;2022-08-21T02:45:26;101512.28;;;21.09;49.87
62600;BME280;48671;48.922;2.346;2022-08-21T02:47:56;101495.06;;;20.90;50.15
62600;BME280;48671;48.922;2.346;2022-08-21T02:50:25;101535.91;;;20.99;49.72
62600;BME280;48671;48.922;2.346;2022-08-21T02:52:50;101523.63;;;20.98;50.46
62600;BME280;48671;48.922;2.346;2022-08-21T02:55:18;101524.38;;;21.00;50.63
62600;BME280;48671;48.922;2.346;2022-08-21T02:57:43;101516.44;;;21.00;50.42
62600;BME280;48671;48.922;2.346;2022-08-21T03:00:10;101520.16;;;20.97;49.70
62600;BME280;48671;48.922;2.346;2022-08-21T03:02:37;101519.50;;;20.94;51.08
62600;BME280;48671;48.922;2.346;2022-08-21T03:05:03;101518.00;;;21.02;50.71
62600;BME280;48671;48.922;2.346;2022-08-21T03:07:29;101504.69;;;20.91;50.53
62600;BME280;48671;48.922;2.346;2022-08-21T03:09:55;101515.91;;;21.08;50.25
62600;BME280;48671;48.922;2.346;2022-08-21T03:12:20;101507.13;;;21.07;50.50
62600;BME280;48671;48.922;2.346;2022-08-21T03:14:45;101512.41;;;21.07;50.48
62600;BME280;48671;48.922;2.346;2022-08-21T03:17:10;101510.81;;;21.04;50.68
62600;BME280;48671;48.922;2.346;2022-08-21T03:19:36;101514.00;;;21.10;50.46
62600;BME280;48671;48.922;2.346;2022-08-21T03:22:01;101509.56;;;21.10;50.49
62600;BME280;48671;48.922;2.346;2022-08-21T03:24:26;101507.22;;;21.05;50.72
62600;BME280;48671;48.922;2.346;2022-08-21T03:26:52;101512.19;;;21.10;50.40
62600;BME280;48671;48.922;2.346;2022-08-21T03:29:17;101496.13;;;21.00;50.74
62600;BME280;48671;48.922;2.346;2022-08-21T03:31:43;101502.78;;;21.06;50.37
62600;BME280;48671;48.922;2.346;2022-08-21T03:34:08;101495.91;;;21.03;50.83
62600;BME280;48671;48.922;2.346;2022-08-21T03:36:34;101486.91;;;21.06;50.53
62600;BME280;48671;48.922;2.346;2022-08-21T03:38:59;101485.84;;;20.96;50.33
62600;BME280;48671;48.922;2.346;2022-08-21T03:41:24;101468.94;;;20.73;50.93
62600;BME280;48671;48.922;2.346;2022-08-21T03:43:49;101478.47;;;20.63;51.11
62600;BME280;48671;48.922;2.346;2022-08-21T03:46:15;101461.19;;;20.44;51.62
62600;BME280;48671;48.922;2.346;2022-08-21T03:48:40;101453.78;;;20.37;51.51
62600;BME280;48671;48.922;2.346;2022-08-21T03:51:06;101473.06;;;20.51;52.22
62600;BME280;48671;48.922;2.346;2022-08-21T03:53:32;101467.66;;;20.53;52.17
62600;BME280;48671;48.922;2.346;2022-08-21T03:55:57;101463.34;;;20.52;51.94
62600;BME280;48671;48.922;2.346;2022-08-21T03:58:25;101481.31;;;20.60;51.87
62600;BME280;48671;48.922;2.346;2022-08-21T04:00:53;101467.47;;;20.56;51.65
62600;BME280;48671;48.922;2.346;2022-08-21T04:03:19;101458.97;;;20.38;51.86
62600;BME280;48671;48.922;2.346;2022-08-21T04:05:45;101465.19;;;20.37;51.95
62600;BME280;48671;48.922;2.346;2022-08-21T04:08:11;101462.34;;;20.27;52.13
62600;BME280;48671;48.922;2.346;2022-08-21T04:10:39;101478.72;;;20.32;52.29
62600;BME280;48671;48.922;2.346;2022-08-21T04:13:06;101466.91;;;20.38;52.26
62600;BME280;48671;48.922;2.346;2022-08-21T04:15:32;101467.34;;;20.45;52.50
62600;BME280;48671;48.922;2.346;2022-08-21T04:17:57;101472.72;;;20.43;52.34
62600;BME280;48671;48.922;2.346;2022-08-21T04:20:24;101455.91;;;20.31;52.57
62600;BME280;48671;48.922;2.346;2022-08-21T04:22:50;101478.00;;;20.43;52.68
62600;BME280;48671;48.922;2.346;2022-08-21T04:25:17;101477.06;;;20.44;52.10
62600;BME280;48671;48.922;2.346;2022-08-21T04:27:43;101480.53;;;20.32;52.18
62600;BME280;48671;48.922;2.346;2022-08-21T04:30:09;101505.91;;;20.34;52.23
62600;BME280;48671;48.922;2.346;2022-08-21T04:32:36;101490.56;;;20.27;52.72
62600;BME280;48671;48.922;2.346;2022-08-21T04:35:08;101501.13;;;20.27;52.44
62600;BME280;48671;48.922;2.346;2022-08-21T04:37:34;101480.38;;;20.21;52.70
62600;BME280;48671;48.922;2.346;2022-08-21T04:40:00;101506.41;;;20.27;52.19
62600;BME280;48671;48.922;2.346;2022-08-21T04:42:27;101474.34;;;20.06;53.01
62600;BME280;48671;48.922;2.346;2022-08-21T04:44:53;101499.66;;;20.23;52.81
62600;BME280;48671;48.922;2.346;2022-08-21T04:47:18;101503.88;;;20.25;52.94
62600;BME280;48671;48.922;2.346;2022-08-21T04:49:44;101512.84;;;20.23;53.01
62600;BME280;48671;48.922;2.346;2022-08-21T04:52:11;101502.09;;;20.26;53.29
62600;BME280;48671;48.922;2.346;2022-08-21T04:54:38;101496.03;;;20.24;52.64
62600;BME280;48671;48.922;2.346;2022-08-21T04:57:06;101504.41;;;20.30;52.46
62600;BME280;48671;48.922;2.346;2022-08-21T04:59:48;101504.28;;;20.19;52.96
62600;BME280;48671;48.922;2.346;2022-08-21T05:02:15;101507.69;;;20.21;52.97
62600;BME280;48671;48.922;2.346;2022-08-21T05:04:48;101488.84;;;20.13;53.06
62600;BME280;48671;48.922;2.346;2022-08-21T05:07:20;101504.09;;;20.22;52.71
62600;BME280;48671;48.922;2.346;2022-08-21T05:09:48;101503.25;;;20.22;52.85
62600;BME280;48671;48.922;2.346;2022-08-21T05:12:13;101500.81;;;20.19;53.26
62600;BME280;48671;48.922;2.346;2022-08-21T05:14:39;101505.47;;;20.28;53.17
62600;BME280;48671;48.922;2.346;2022-08-21T05:17:05;101503.03;;;20.25;52.92
62600;BME280;48671;48.922;2.346;2022-08-21T05:19:30;101504.16;;;20.21;53.26
62600;BME280;48671;48.922;2.346;2022-08-21T05:21:56;101478.28;;;20.13;53.35
62600;BME280;48671;48.922;2.346;2022-08-21T05:24:22;101493.72;;;20.19;52.81
62600;BME280;48671;48.922;2.346;2022-08-21T05:26:47;101477.59;;;19.97;53.64
62600;BME280;48671;48.922;2.346;2022-08-21T05:29:15;101497.78;;;19.98;53.27
62600;BME280;48671;48.922;2.346;2022-08-21T05:31:40;101495.88;;;20.00;53.37
62600;BME280;48671;48.922;2.346;2022-08-21T05:34:06;101511.09;;;19.96;53.37
62600;BME280;48671;48.922;2.346;2022-08-21T05:36:31;101483.47;;;19.87;53.63
62600;BME280;48671;48.922;2.346;2022-08-21T05:38:57;101501.28;;;19.98;53.54
62600;BME280;48671;48.922;2.346;2022-08-21T05:41:22;101516.19;;;19.99;53.65
62600;BME280;48671;48.922;2.346;2022-08-21T05:43:47;101498.94;;;19.94;53.59
62600;BME280;48671;48.922;2.346;2022-08-21T05:46:14;101495.44;;;19.93;53.81
62600;BME280;48671;48.922;2.346;2022-08-21T05:48:40;101500.31;;;19.99;53.72
62600;BME280;48671;48.922;2.346;2022-08-21T05:51:11;101513.97;;;20.06;53.55
62600;BME280;48671;48.922;2.346;2022-08-21T05:53:37;101516.41;;;20.09;53.95
62600;BME280;48671;48.922;2.346;2022-08-21T05:56:04;101518.75;;;20.14;53.63
62600;BME280;48671;48.922;2.346;2022-08-21T05:58:31;101519.50;;;20.16;53.59
62600;BME280;48671;48.922;2.346;2022-08-21T06:00:58;101521.38;;;20.14;53.76
62600;BME280;48671;48.922;2.346;2022-08-21T06:03:26;101516.00;;;20.15;53.33
62600;BME280;48671;48.922;2.346;2022-08-21T06:05:52;101515.91;;;20.17;53.78
62600;BME280;48671;48.922;2.346;2022-08-21T06:08:18;101509.34;;;20.09;53.42
62600;BME280;48671;48.922;2.346;2022-08-21T06:10:44;101503.44;;;20.19;53.61
62600;BME280;48671;48.922;2.346;2022-08-21T06:13:10;101525.66;;;20.29;53.53
62600;BME280;48671;48.922;2.346;2022-08-21T06:15:36;101516.34;;;20.23;53.44
62600;BME280;48671;48.922;2.346;2022-08-21T06:18:02;101498.03;;;20.20;53.78
62600;BME280;48671;48.922;2.346;2022-08-21T06:20:27;101516.50;;;20.34;53.16
62600;BME280;48671;48.922;2.346;2022-08-21T06:22:53;101522.94;;;20.43;53.06
62600;BME280;48671;48.922;2.346;2022-08-21T06:25:19;101507.06;;;20.43;53.31
62600;BME280;48671;48.922;2.346;2022-08-21T06:27:45;101502.66;;;20.44;53.25
62600;BME280;48671;48.922;2.346;2022-08-21T06:30:11;101521.09;;;20.58;53.07
62600;BME280;48671;48.922;2.346;2022-08-21T06:32:37;101523.63;;;20.60;53.87
62600;BME280;48671;48.922;2.346;2022-08-21T06:35:03;101514.00;;;20.58;53.02
62600;BME280;48671;48.922;2.346;2022-08-21T06:37:29;101492.97;;;20.57;53.38
62600;BME280;48671;48.922;2.346;2022-08-21T06:39:54;101504.59;;;20.67;53.32
62600;BME280;48671;48.922;2.346;2022-08-21T06:42:19;101496.88;;;20.64;52.75
62600;BME280;48671;48.922;2.346;2022-08-21T06:44:45;101507.03;;;20.83;53.10
62600;BME280;48671;48.922;2.346;2022-08-21T06:47:11;101467.47;;;20.69;52.86
62600;BME280;48671;48.922;2.346;2022-08-21T06:49:37;101477.94;;;20.83;52.61
62600;BME280;48671;48.922;2.346;2022-08-21T06:52:02;101493.34;;;21.02;52.68
62600;BME280;48671;48.922;2.346;2022-08-21T06:54:28;101495.69;;;21.07;52.25
62600;BME280;48671;48.922;2.346;2022-08-21T06:56:53;101484.91;;;21.10;52.93
62600;BME280;48671;48.922;2.346;2022-08-21T06:59:19;101484.06;;;21.09;52.46
62600;BME280;48671;48.922;2.346;2022-08-21T07:01:44;101489.00;;;21.14;52.30
62600;BME280;48671;48.922;2.346;2022-08-21T07:04:10;101483.59;;;21.15;52.20
62600;BME280;48671;48.922;2.346;2022-08-21T07:06:35;101472.91;;;21.17;52.26
62600;BME280;48671;48.922;2.346;2022-08-21T07:09:01;101482.84;;;21.26;52.56
62600;BME280;48671;48.922;2.346;2022-08-21T07:11:27;101485.91;;;21.33;52.31
62600;BME280;48671;48.922;2.346;2022-08-21T07:13:52;101479.53;;;21.35;51.55
62600;BME280;48671;48.922;2.346;2022-08-21T07:16:20;101491.63;;;21.39;51.36
62600;BME280;48671;48.922;2.346;2022-08-21T07:18:46;101491.00;;;21.36;51.22
62600;BME280;48671;48.922;2.346;2022-08-21T07:21:11;101491.94;;;21.22;51.28
62600;BME280;48671;48.922;2.346;2022-08-21T07:23:40;101491.94;;;21.22;51.61
62600;BME280;48671;48.922;2.346;2022-08-21T07:26:07;101487.59;;;21.21;51.73
62600;BME280;48671;48.922;2.346;2022-08-21T07:28:33;101489.69;;;21.28;51.52
62600;BME280;48671;48.922;2.346;2022-08-21T07:31:00;101489.19;;;21.36;51.88
62600;BME280;48671;48.922;2.346;2022-08-21T07:33:27;101477.44;;;21.40;51.59
62600;BME280;48671;48.922;2.346;2022-08-21T07:35:53;101480.13;;;21.51;50.98
62600;BME280;48671;48.922;2.346;2022-08-21T07:38:19;101480.44;;;21.60;51.05
62600;BME280;48671;48.922;2.346;2022-08-21T07:40:46;101481.34;;;21.71;50.90
62600;BME280;48671;48.922;2.346;2022-08-21T07:43:11;101476.38;;;21.91;50.58
62600;BME280;48671;48.922;2.346;2022-08-21T07:45:37;101483.06;;;22.08;50.74
62600;BME280;48671;48.922;2.346;2022-08-21T07:48:03;101483.03;;;22.20;50.04
62600;BME280;48671;48.922;2.346;2022-08-21T07:50:29;101481.97;;;22.34;50.19
62600;BME280;48671;48.922;2.346;2022-08-21T07:52:54;101486.56;;;22.43;49.67
62600;BME280;48671;48.922;2.346;2022-08-21T07:55:21;101491.88;;;22.55;48.94
62600;BME280;48671;48.922;2.346;2022-08-21T07:57:47;101487.09;;;22.60;48.56
62600;BME280;48671;48.922;2.346;2022-08-21T08:00:18;101475.03;;;22.67;49.11
62600;BME280;48671;48.922;2.346;2022-08-21T08:02:47;101444.66;;;22.60;48.91
62600;BME280;48671;48.922;2.346;2022-08-21T08:05:16;101462.84;;;22.76;48.44
62600;BME280;48671;48.922;2.346;2022-08-21T08:07:42;101475.88;;;22.90;47.46
62600;BME280;48671;48.922;2.346;2022-08-21T08:10:08;101458.88;;;22.93;48.28
62600;BME280;48671;48.922;2.346;2022-08-21T08:12:35;101462.28;;;23.06;48.00
62600;BME280;48671;48.922;2.346;2022-08-21T08:15:01;101474.44;;;23.20;47.48
62600;BME280;48671;48.922;2.346;2022-08-21T08:17:27;101466.84;;;23.26;47.23
62600;BME280;48671;48.922;2.346;2022-08-21T08:19:53;101470.19;;;23.40;47.06
62600;BME280;48671;48.922;2.346;2022-08-21T08:22:21;101471.50;;;23.45;46.79
62600;BME280;48671;48.922;2.346;2022-08-21T08:24:47;101450.50;;;23.42;46.84
62600;BME280;48671;48.922;2.346;2022-08-21T08:27:14;101466.41;;;23.53;46.44
62600;BME280;48671;48.922;2.346;2022-08-21T08:29:39;101460.84;;;23.56;46.59
62600;BME280;48671;48.922;2.346;2022-08-21T08:32:05;101463.59;;;23.66;46.08
62600;BME280;48671;48.922;2.346;2022-08-21T08:34:33;101466.50;;;23.74;45.65
62600;BME280;48671;48.922;2.346;2022-08-21T08:36:58;101456.13;;;23.71;46.27
62600;BME280;48671;48.922;2.346;2022-08-21T08:39:24;101453.66;;;23.79;45.65
62600;BME280;48671;48.922;2.346;2022-08-21T08:41:56;101452.97;;;23.98;45.27
62600;BME280;48671;48.922;2.346;2022-08-21T08:44:23;101450.19;;;24.21;44.80
62600;BME280;48671;48.922;2.346;2022-08-21T08:46:51;101452.16;;;24.40;44.14
62600;BME280;48671;48.922;2.346;2022-08-21T08:49:24;101449.59;;;24.38;44.36
62600;BME280;48671;48.922;2.346;2022-08-21T08:51:57;101458.50;;;24.27;44.27
62600;BME280;48671;48.922;2.346;2022-08-21T08:54:34;101458.81;;;24.13;44.52
62600;BME280;48671;48.922;2.346;2022-08-21T08:57:09;101416.53;;;23.89;43.89
62600;BME280;48671;48.922;2.346;2022-08-21T08:59:43;101440.91;;;24.15;44.83
62600;BME280;48671;48.922;2.346;2022-08-21T09:02:11;101432.34;;;24.33;43.81
62600;BME280;48671;48.922;2.346;2022-08-21T09:04:37;101441.44;;;24.51;43.57
62600;BME280;48671;48.922;2.346;2022-08-21T09:10:11;101437.47;;;24.45;43.44
62600;BME280;48671;48.922;2.346;2022-08-21T09:25:41;101421.47;;;24.57;43.58
62600;BME280;48671;48.922;2.346;2022-08-21T09:28:09;101412.63;;;24.56;43.29
62600;BME280;48671;48.922;2.346;2022-08-21T09:30:39;101423.91;;;24.69;42.74
62600;BME280;48671;48.922;2.346;2022-08-21T09:33:04;101416.22;;;24.76;42.91
62600;BME280;48671;48.922;2.346;2022-08-21T09:35:29;101416.25;;;24.86;43.24
62600;BME280;48671;48.922;2.346;2022-08-21T09:40:27;101412.59;;;24.87;42.42
62600;BME280;48671;48.922;2.346;2022-08-21T09:43:07;101416.53;;;24.83;42.56
62600;BME280;48671;48.922;2.346;2022-08-21T09:45:43;101420.88;;;24.93;42.50
62600;BME280;48671;48.922;2.346;2022-08-21T09:48:23;101423.56;;;25.03;41.93
62600;BME280;48671;48.922;2.346;2022-08-21T09:50:50;101424.91;;;25.18;40.70
62600;BME280;48671;48.922;2.346;2022-08-21T09:55:51;101417.66;;;25.50;40.73
62600;BME280;48671;48.922;2.346;2022-08-21T09:58:37;101409.94;;;25.56;39.62
62600;BME280;48671;48.922;2.346;2022-08-21T10:01:05;101398.00;;;25.60;40.40
62600;BME280;48671;48.922;2.346;2022-08-21T10:03:31;101375.16;;;25.67;40.34
62600;BME280;48671;48.922;2.346;2022-08-21T10:06:03;101400.69;;;25.99;39.39
62600;BME280;48671;48.922;2.346;2022-08-21T10:08:35;101392.53;;;26.01;39.88
62600;BME280;48671;48.922;2.346;2022-08-21T10:11:06;101387.59;;;26.15;39.48
62600;BME280;48671;48.922;2.346;2022-08-21T10:16:27;101385.13;;;26.42;38.42
62600;BME280;48671;48.922;2.346;2022-08-21T10:22:00;101369.63;;;26.18;39.01
62600;BME280;48671;48.922;2.346;2022-08-21T10:24:40;101371.19;;;26.10;39.26
62600;BME280;48671;48.922;2.346;2022-08-21T10:27:47;101375.28;;;26.05;38.72
62600;BME280;48671;48.922;2.346;2022-08-21T10:35:41;101347.69;;;25.67;38.22
62600;BME280;48671;48.922;2.346;2022-08-21T10:41:47;101359.75;;;25.61;38.90
62600;BME280;48671;48.922;2.346;2022-08-21T10:47:06;101352.59;;;25.62;38.12
62600;BME280;48671;48.922;2.346;2022-08-21T10:49:52;101352.97;;;25.77;37.49
62600;BME280;48671;48.922;2.346;2022-08-21T10:55:27;101342.03;;;25.80;36.97
62600;BME280;48671;48.922;2.346;2022-08-21T10:58:08;101330.16;;;25.84;36.56
62600;BME280;48671;48.922;2.346;2022-08-21T11:00:47;101324.06;;;25.91;37.14
62600;BME280;48671;48.922;2.346;2022-08-21T11:03:21;101321.97;;;25.95;36.31
62600;BME280;48671;48.922;2.346;2022-08-21T11:06:02;101337.09;;;26.04;36.55
62600;BME280;48671;48.922;2.346;2022-08-21T11:08:42;101334.44;;;26.04;37.21
62600;BME280;48671;48.922;2.346;2022-08-21T11:11:12;101336.53;;;26.10;37.20
62600;BME280;48671;48.922;2.346;2022-08-21T11:13:45;101328.94;;;26.06;36.68
62600;BME280;48671;48.922;2.346;2022-08-21T11:16:41;101313.38;;;26.01;35.65
62600;BME280;48671;48.922;2.346;2022-08-21T11:19:21;101358.56;;;26.03;36.32
62600;BME280;48671;48.922;2.346;2022-08-21T11:21:52;101355.78;;;25.95;36.87
62600;BME280;48671;48.922;2.346;2022-08-21T11:29:38;101361.28;;;26.30;36.79
62600;BME280;48671;48.922;2.346;2022-08-21T11:45:56;101356.97;;;27.30;35.53
62600;BME280;48671;48.922;2.346;2022-08-21T11:51:47;101360.25;;;27.42;35.61
62600;BME280;48671;48.922;2.346;2022-08-21T11:54:27;101350.19;;;27.36;35.42
62600;BME280;48671;48.922;2.346;2022-08-21T11:59:47;101342.63;;;27.31;35.08
62600;BME280;48671;48.922;2.346;2022-08-21T12:02:18;101350.03;;;27.37;35.21
62600;BME280;48671;48.922;2.346;2022-08-21T12:04:53;101343.00;;;27.36;35.93
62600;BME280;48671;48.922;2.346;2022-08-21T12:07:42;101340.03;;;27.39;35.55
62600;BME280;48671;48.922;2.346;2022-08-21T12:10:12;101350.41;;;27.42;35.67
62600;BME280;48671;48.922;2.346;2022-08-21T12:12:41;101344.94;;;27.44;36.17
62600;BME280;48671;48.922;2.346;2022-08-21T12:18:01;101334.97;;;27.36;35.96
62600;BME280;48671;48.922;2.346;2022-08-21T12:23:14;101313.16;;;27.23;36.03
62600;BME280;48671;48.922;2.346;2022-08-21T12:25:44;101326.13;;;27.36;36.17
62600;BME280;48671;48.922;2.346;2022-08-21T12:28:12;101311.31;;;27.41;36.65
62600;BME280;48671;48.922;2.346;2022-08-21T12:30:44;101321.41;;;27.47;36.38
62600;BME280;48671;48.922;2.346;2022-08-21T12:33:37;101313.59;;;27.54;36.85
62600;BME280;48671;48.922;2.346;2022-08-21T12:36:17;101304.69;;;27.71;36.67
62600;BME280;48671;48.922;2.346;2022-08-21T12:38:51;101297.75;;;27.78;36.64
62600;BME280;48671;48.922;2.346;2022-08-21T12:41:26;101292.25;;;27.80;36.14
62600;BME280;48671;48.922;2.346;2022-08-21T12:44:14;101309.03;;;27.90;35.94
62600;BME280;48671;48.922;2.346;2022-08-21T12:46:56;101284.38;;;27.78;36.27
62600;BME280;48671;48.922;2.346;2022-08-21T12:51:57;101291.28;;;27.89;36.75
62600;BME280;48671;48.922;2.346;2022-08-21T12:54:31;101276.41;;;27.87;36.88
62600;BME280;48671;48.922;2.346;2022-08-21T12:57:03;101293.13;;;27.89;36.89
62600;BME280;48671;48.922;2.346;2022-08-21T12:59:30;101281.56;;;27.80;37.21
62600;BME280;48671;48.922;2.346;2022-08-21T13:01:59;101284.53;;;27.77;37.25
62600;BME280;48671;48.922;2.346;2022-08-21T13:04:39;101266.75;;;27.68;37.58
62600;BME280;48671;48.922;2.346;2022-08-21T13:07:08;101276.63;;;27.75;37.56
62600;BME280;48671;48.922;2.346;2022-08-21T13:09:45;101268.34;;;27.78;37.73
62600;BME280;48671;48.922;2.346;2022-08-21T13:12:12;101277.66;;;28.00;37.16
62600;BME280;48671;48.922;2.346;2022-08-21T13:14:42;101282.38;;;28.15;36.83
62600;BME280;48671;48.922;2.346;2022-08-21T13:17:10;101245.38;;;28.02;37.21
62600;BME280;48671;48.922;2.346;2022-08-21T13:19:36;101284.81;;;28.34;36.89
62600;BME280;48671;48.922;2.346;2022-08-21T13:22:02;101267.91;;;28.34;37.28
62600;BME280;48671;48.922;2.346;2022-08-21T13:24:32;101245.97;;;28.22;37.20
62600;BME280;48671;48.922;2.346;2022-08-21T13:26:58;101271.69;;;28.57;36.75
62600;BME280;48671;48.922;2.346;2022-08-21T13:29:32;101254.81;;;28.57;36.71
62600;BME280;48671;48.922;2.346;2022-08-21T13:32:01;101271.03;;;28.63;36.88
62600;BME280;48671;48.922;2.346;2022-08-21T13:34:34;101272.16;;;28.44;36.70
62600;BME280;48671;48.922;2.346;2022-08-21T13:37:05;101254.22;;;28.29;36.83
62600;BME280;48671;48.922;2.346;2022-08-21T13:39:31;101248.28;;;28.67;36.27
62600;BME280;48671;48.922;2.346;2022-08-21T13:42:00;101255.03;;;28.88;35.72
62600;BME280;48671;48.922;2.346;2022-08-21T13:44:43;101271.22;;;28.70;34.65
62600;BME280;48671;48.922;2.346;2022-08-21T13:47:11;101265.81;;;28.45;35.62
62600;BME280;48671;48.922;2.346;2022-08-21T13:49:41;101262.06;;;28.38;36.31
62600;BME280;48671;48.922;2.346;2022-08-21T13:52:19;101251.38;;;28.38;35.88
62600;BME280;48671;48.922;2.346;2022-08-21T13:54:55;101251.66;;;28.69;35.20
62600;BME280;48671;48.922;2.346;2022-08-21T13:57:28;101262.44;;;29.19;35.48
62600;BME280;48671;48.922;2.346;2022-08-21T14:00:19;101253.19;;;29.46;34.60
62600;BME280;48671;48.922;2.346;2022-08-21T14:02:47;101229.69;;;29.80;33.74
62600;BME280;48671;48.922;2.346;2022-08-21T14:05:35;101246.69;;;30.12;32.90
62600;BME280;48671;48.922;2.346;2022-08-21T14:08:13;101243.22;;;30.35;32.68
62600;BME280;48671;48.922;2.346;2022-08-21T14:10:49;101250.47;;;30.57;33.50
62600;BME280;48671;48.922;2.346;2022-08-21T14:13:40;101243.59;;;30.31;32.79